sensor_id;sensor_type;location;lat;lon;timestamp;P1;durP1;ratioP1;P2;durP2;ratioP2
18867;SDS011;9563;49.240;9.088;2023-06-19T04:00:21;6.25;;;2.33;;
18867;SDS011;9563;49.240;9.088;2023-06-19T04:02:48;3.33;;;2.55;;
18867;SDS011;9563;49.240;9.088;2023-06-19T04:05:15;5.50;;;2.92;;
18867;SDS011;9563;49.240;9.088;2023-06-19T04:07:42;5.32;;;2.40;;
18867;SDS011;9563;49.240;9.088;2023-06-19T04:10:09;2.63;;;2.00;;
18867;SDS011;9563;49.240;9.088;2023-06-19T04:12:36;4.45;;;2.30;;
18867;SDS011;9563;49.240;9.088;2023-06-19T04:15:03;4.43;;;2.20;;
18867;SDS011;9563;49.240;9.088;2023-06-19T04:17:32;2.67;;;1.98;;
18867;SDS011;9563;49.240;9.088;2023-06-19T04:19:59;2.40;;;2.20;;
18867;SDS011;9563;49.240;9.088;2023-06-19T04:22:26;2.95;;;2.50;;
18867;SDS011;9563;49.240;9.088;2023-06-19T04:24:53;3.45;;;2.35;;
18867;SDS011;9563;49.240;9.088;2023-06-19T04:27:20;2.85;;;1.88;;
18867;SDS011;9563;49.240;9.088;2023-06-19T04:29:47;2.60;;;2.40;;
18867;SDS011;9563;49.240;9.088;2023-06-19T04:32:13;2.67;;;2.05;;
18867;SDS011;9563;49.240;9.088;2023-06-19T04:34:42;5.40;;;2.38;;
18867;SDS011;9563;49.240;9.088;2023-06-19T04:37:11;3.55;;;2.33;;
18867;SDS011;9563;49.240;9.088;2023-06-19T04:39:38;4.70;;;2.65;;
18867;SDS011;9563;49.240;9.088;2023-06-19T04:42:05;4.82;;;2.65;;
18867;SDS011;9563;49.240;9.088;2023-06-19T04:44:32;3.80;;;2.53;;
18867;SDS011;9563;49.240;9.088;2023-06-19T04:46:59;6.20;;;3.05;;
18867;SDS011;9563;49.240;9.088;2023-06-19T04:49:27;3.85;;;2.55;;
18867;SDS011;9563;49.240;9.088;2023-06-19T04:51:57;3.22;;;2.63;;
18867;SDS011;9563;49.240;9.088;2023-06-19T04:54:24;4.70;;;3.13;;
18867;SDS011;9563;49.240;9.088;2023-06-19T04:56:51;4.40;;;3.13;;
18867;SDS011;9563;49.240;9.088;2023-06-19T04:59:19;3.58;;;2.38;;
18867;SDS011;9563;49.240;9.088;2023-06-19T05:01:45;5.38;;;2.40;;
18867;SDS011;9563;49.240;9.088;2023-06-19T05:04:13;3.95;;;2.65;;
18867;SDS011;9563;49.240;9.088;2023-06-19T05:06:39;3.33;;;2.45;;
18867;SDS011;9563;49.240;9.088;2023-06-19T05:09:09;4.03;;;2.85;;
18867;SDS011;9563;49.240;9.088;2023-06-19T05:11:36;4.45;;;3.28;;
18867;SDS011;9563;49.240;9.088;2023-06-19T05:14:03;5.10;;;2.70;;
18867;SDS011;9563;49.240;9.088;2023-06-19T05:16:30;3.92;;;2.78;;
18867;SDS011;9563;49.240;9.088;2023-06-19T05:18:57;2.63;;;2.40;;
18867;SDS011;9563;49.240;9.088;2023-06-19T05:21:23;4.13;;;2.97;;
18867;SDS011;9563;49.240;9.088;2023-06-19T05:23:50;3.17;;;2.22;;
18867;SDS011;9563;49.240;9.088;2023-06-19T05:26:19;6.03;;;2.70;;
18867;SDS011;9563;49.240;9.088;2023-06-19T05:28:47;4.07;;;2.90;;
18867;SDS011;9563;49.240;9.088;2023-06-19T05:31:14;4.10;;;3.30;;
18867;SDS011;9563;49.240;9.088;2023-06-19T05:33:41;3.15;;;2.60;;
18867;SDS011;9563;49.240;9.088;2023-06-19T05:36:08;4.22;;;3.17;;
18867;SDS011;9563;49.240;9.088;2023-06-19T05:38:35;3.05;;;2.53;;
18867;SDS011;9563;49.240;9.088;2023-06-19T05:41:02;5.10;;;2.70;;
18867;SDS011;9563;49.240;9.088;2023-06-19T05:43:30;4.75;;;2.60;;
18867;SDS011;9563;49.240;9.088;2023-06-19T05:45:57;3.95;;;2.90;;
18867;SDS011;9563;49.240;9.088;2023-06-19T05:48:24;3.72;;;2.88;;
18867;SDS011;9563;49.240;9.088;2023-06-19T05:50:51;6.03;;;3.13;;
18867;SDS011;9563;49.240;9.088;2023-06-19T05:53:18;5.00;;;3.03;;
18867;SDS011;9563;49.240;9.088;2023-06-19T05:55:45;3.00;;;2.42;;
18867;SDS011;9563;49.240;9.088;2023-06-19T05:58:12;7.00;;;2.97;;
18867;SDS011;9563;49.240;9.088;2023-06-19T06:00:40;2.90;;;2.47;;
18867;SDS011;9563;49.240;9.088;2023-06-19T06:03:07;3.50;;;2.72;;
18867;SDS011;9563;49.240;9.088;2023-06-19T06:05:34;4.55;;;2.72;;
18867;SDS011;9563;49.240;9.088;2023-06-19T06:08:01;3.72;;;3.08;;
18867;SDS011;9563;49.240;9.088;2023-06-19T06:10:28;3.90;;;2.97;;
18867;SDS011;9563;49.240;9.088;2023-06-19T06:12:55;6.57;;;3.50;;
18867;SDS011;9563;49.240;9.088;2023-06-19T06:15:22;4.20;;;3.10;;
18867;SDS011;9563;49.240;9.088;2023-06-19T06:17:50;4.35;;;3.10;;
18867;SDS011;9563;49.240;9.088;2023-06-19T06:20:17;4.65;;;2.90;;
18867;SDS011;9563;49.240;9.088;2023-06-19T06:22:44;4.18;;;2.70;;
18867;SDS011;9563;49.240;9.088;2023-06-19T06:25:11;8.98;;;2.97;;
18867;SDS011;9563;49.240;9.088;2023-06-19T06:27:38;6.30;;;2.72;;
18867;SDS011;9563;49.240;9.088;2023-06-19T06:30:05;4.57;;;3.17;;
18867;SDS011;9563;49.240;9.088;2023-06-19T06:32:36;6.30;;;3.15;;
18867;SDS011;9563;49.240;9.088;2023-06-19T06:35:05;7.20;;;3.55;;
18867;SDS011;9563;49.240;9.088;2023-06-19T06:37:33;4.75;;;2.90;;
18867;SDS011;9563;49.240;9.088;2023-06-19T06:40:00;3.60;;;2.80;;
18867;SDS011;9563;49.240;9.088;2023-06-19T06:42:28;4.28;;;3.20;;
18867;SDS011;9563;49.240;9.088;2023-06-19T06:44:54;5.95;;;2.95;;
18867;SDS011;9563;49.240;9.088;2023-06-19T06:47:21;3.97;;;2.90;;
18867;SDS011;9563;49.240;9.088;2023-06-19T06:49:49;4.10;;;3.33;;
18867;SDS011;9563;49.240;9.088;2023-06-19T06:52:17;5.05;;;3.00;;
18867;SDS011;9563;49.240;9.088;2023-06-19T06:54:44;5.25;;;3.42;;
18867;SDS011;9563;49.240;9.088;2023-06-19T06:57:10;5.40;;;2.95;;
18867;SDS011;9563;49.240;9.088;2023-06-19T06:59:37;6.65;;;3.30;;
18867;SDS011;9563;49.240;9.088;2023-06-19T07:02:05;3.65;;;2.75;;
18867;SDS011;9563;49.240;9.088;2023-06-19T07:04:32;3.85;;;3.20;;
18867;SDS011;9563;49.240;9.088;2023-06-19T07:06:59;3.53;;;2.90;;
18867;SDS011;9563;49.240;9.088;2023-06-19T07:09:28;4.60;;;3.00;;
18867;SDS011;9563;49.240;9.088;2023-06-19T07:11:55;9.00;;;3.47;;
18867;SDS011;9563;49.240;9.088;2023-06-19T07:14:21;10.02;;;3.33;;
18867;SDS011;9563;49.240;9.088;2023-06-19T07:16:48;3.78;;;2.80;;
18867;SDS011;9563;49.240;9.088;2023-06-19T07:19:16;5.85;;;3.38;;
18867;SDS011;9563;49.240;9.088;2023-06-19T07:21:42;4.72;;;2.90;;
18867;SDS011;9563;49.240;9.088;2023-06-19T07:24:09;5.57;;;3.15;;
18867;SDS011;9563;49.240;9.088;2023-06-19T07:26:38;4.15;;;3.08;;
18867;SDS011;9563;49.240;9.088;2023-06-19T07:29:05;3.78;;;3.30;;
18867;SDS011;9563;49.240;9.088;2023-06-19T07:31:32;8.48;;;3.22;;
18867;SDS011;9563;49.240;9.088;2023-06-19T07:33:59;2.95;;;2.55;;
18867;SDS011;9563;49.240;9.088;2023-06-19T07:36:26;4.82;;;3.22;;
18867;SDS011;9563;49.240;9.088;2023-06-19T07:38:54;4.72;;;3.33;;
18867;SDS011;9563;49.240;9.088;2023-06-19T07:41:21;3.88;;;2.75;;
18867;SDS011;9563;49.240;9.088;2023-06-19T07:43:51;7.03;;;2.90;;
18867;SDS011;9563;49.240;9.088;2023-06-19T07:46:17;5.75;;;3.05;;
18867;SDS011;9563;49.240;9.088;2023-06-19T07:48:44;7.60;;;3.03;;
18867;SDS011;9563;49.240;9.088;2023-06-19T07:51:11;3.88;;;3.03;;
18867;SDS011;9563;49.240;9.088;2023-06-19T07:53:38;5.72;;;2.85;;
18867;SDS011;9563;49.240;9.088;2023-06-19T07:56:08;3.60;;;2.60;;
18867;SDS011;9563;49.240;9.088;2023-06-19T07:58:35;6.90;;;3.63;;
18867;SDS011;9563;49.240;9.088;2023-06-19T08:01:03;5.50;;;3.45;;
18867;SDS011;9563;49.240;9.088;2023-06-19T08:03:30;5.35;;;2.92;;
18867;SDS011;9563;49.240;9.088;2023-06-19T08:05:57;4.22;;;3.13;;
18867;SDS011;9563;49.240;9.088;2023-06-19T08:08:24;4.03;;;3.20;;
18867;SDS011;9563;49.240;9.088;2023-06-19T08:10:51;4.80;;;3.28;;
18867;SDS011;9563;49.240;9.088;2023-06-19T08:13:18;4.43;;;3.22;;
18867;SDS011;9563;49.240;9.088;2023-06-19T08:15:45;6.47;;;3.03;;
18867;SDS011;9563;49.240;9.088;2023-06-19T08:18:13;4.53;;;3.40;;
18867;SDS011;9563;49.240;9.088;2023-06-19T08:20:40;4.55;;;3.25;;
18867;SDS011;9563;49.240;9.088;2023-06-19T08:23:07;9.40;;;3.13;;
18867;SDS011;9563;49.240;9.088;2023-06-19T08:25:33;4.35;;;3.47;;
18867;SDS011;9563;49.240;9.088;2023-06-19T08:28:00;7.38;;;3.75;;
18867;SDS011;9563;49.240;9.088;2023-06-19T08:30:27;4.25;;;3.30;;
18867;SDS011;9563;49.240;9.088;2023-06-19T08:32:54;7.75;;;3.60;;
18867;SDS011;9563;49.240;9.088;2023-06-19T08:35:22;4.32;;;3.33;;
18867;SDS011;9563;49.240;9.088;2023-06-19T08:37:49;5.00;;;3.25;;
18867;SDS011;9563;49.240;9.088;2023-06-19T08:40:16;4.47;;;3.35;;
18867;SDS011;9563;49.240;9.088;2023-06-19T08:42:45;4.20;;;3.53;;
18867;SDS011;9563;49.240;9.088;2023-06-19T08:45:12;4.07;;;3.10;;
18867;SDS011;9563;49.240;9.088;2023-06-19T08:47:39;5.55;;;3.17;;
18867;SDS011;9563;49.240;9.088;2023-06-19T08:50:06;4.28;;;3.15;;
18867;SDS011;9563;49.240;9.088;2023-06-19T08:52:35;3.85;;;3.05;;
18867;SDS011;9563;49.240;9.088;2023-06-19T08:55:02;6.53;;;3.50;;
18867;SDS011;9563;49.240;9.088;2023-06-19T08:57:32;4.40;;;2.97;;
18867;SDS011;9563;49.240;9.088;2023-06-19T09:00:00;3.95;;;3.00;;
18867;SDS011;9563;49.240;9.088;2023-06-19T09:02:36;4.32;;;2.80;;
18867;SDS011;9563;49.240;9.088;2023-06-19T09:05:13;5.97;;;3.22;;
18867;SDS011;9563;49.240;9.088;2023-06-19T09:07:42;3.55;;;3.03;;
18867;SDS011;9563;49.240;9.088;2023-06-19T09:10:16;4.78;;;3.33;;
18867;SDS011;9563;49.240;9.088;2023-06-19T09:12:55;3.72;;;3.33;;
18867;SDS011;9563;49.240;9.088;2023-06-19T09:15:25;7.78;;;3.33;;
18867;SDS011;9563;49.240;9.088;2023-06-19T09:18:01;4.18;;;3.28;;
18867;SDS011;9563;49.240;9.088;2023-06-19T09:20:29;4.75;;;3.08;;
18867;SDS011;9563;49.240;9.088;2023-06-19T09:22:57;7.40;;;3.53;;
18867;SDS011;9563;49.240;9.088;2023-06-19T09:25:25;4.57;;;3.35;;
18867;SDS011;9563;49.240;9.088;2023-06-19T09:27:52;7.13;;;3.47;;
18867;SDS011;9563;49.240;9.088;2023-06-19T09:30:19;4.10;;;3.58;;
18867;SDS011;9563;49.240;9.088;2023-06-19T09:32:46;5.50;;;3.63;;
18867;SDS011;9563;49.240;9.088;2023-06-19T09:35:14;5.60;;;3.70;;
18867;SDS011;9563;49.240;9.088;2023-06-19T09:37:41;4.53;;;3.85;;
18867;SDS011;9563;49.240;9.088;2023-06-19T09:40:11;5.70;;;3.35;;
18867;SDS011;9563;49.240;9.088;2023-06-19T09:42:39;4.63;;;3.80;;
18867;SDS011;9563;49.240;9.088;2023-06-19T09:45:08;5.18;;;3.83;;
18867;SDS011;9563;49.240;9.088;2023-06-19T09:47:37;7.93;;;4.40;;
18867;SDS011;9563;49.240;9.088;2023-06-19T09:50:09;8.05;;;3.95;;
18867;SDS011;9563;49.240;9.088;2023-06-19T09:52:38;7.78;;;3.95;;
18867;SDS011;9563;49.240;9.088;2023-06-19T09:55:06;4.30;;;3.85;;
18867;SDS011;9563;49.240;9.088;2023-06-19T09:57:36;5.18;;;3.90;;
18867;SDS011;9563;49.240;9.088;2023-06-19T10:00:04;4.70;;;3.92;;
18867;SDS011;9563;49.240;9.088;2023-06-19T10:02:37;4.75;;;4.10;;
18867;SDS011;9563;49.240;9.088;2023-06-19T10:05:05;6.68;;;4.00;;
18867;SDS011;9563;49.240;9.088;2023-06-19T10:07:34;7.43;;;4.15;;
18867;SDS011;9563;49.240;9.088;2023-06-19T10:10:02;6.55;;;4.00;;
18867;SDS011;9563;49.240;9.088;2023-06-19T10:12:34;4.20;;;3.80;;
18867;SDS011;9563;49.240;9.088;2023-06-19T10:15:08;4.10;;;3.58;;
18867;SDS011;9563;49.240;9.088;2023-06-19T10:17:37;7.30;;;4.00;;
18867;SDS011;9563;49.240;9.088;2023-06-19T10:20:04;5.13;;;3.55;;
18867;SDS011;9563;49.240;9.088;2023-06-19T10:22:39;3.90;;;3.50;;
18867;SDS011;9563;49.240;9.088;2023-06-19T10:25:19;7.13;;;3.28;;
18867;SDS011;9563;49.240;9.088;2023-06-19T10:27:48;5.32;;;3.88;;
18867;SDS011;9563;49.240;9.088;2023-06-19T10:30:17;6.65;;;3.75;;
18867;SDS011;9563;49.240;9.088;2023-06-19T10:32:44;3.78;;;3.05;;
18867;SDS011;9563;49.240;9.088;2023-06-19T10:35:12;4.43;;;3.60;;
18867;SDS011;9563;49.240;9.088;2023-06-19T10:37:39;5.30;;;3.45;;
18867;SDS011;9563;49.240;9.088;2023-06-19T10:40:07;7.78;;;3.88;;
18867;SDS011;9563;49.240;9.088;2023-06-19T10:42:36;3.60;;;3.30;;
18867;SDS011;9563;49.240;9.088;2023-06-19T10:45:06;6.55;;;3.42;;
18867;SDS011;9563;49.240;9.088;2023-06-19T10:47:35;4.72;;;3.85;;
18867;SDS011;9563;49.240;9.088;2023-06-19T10:50:02;4.15;;;3.42;;
18867;SDS011;9563;49.240;9.088;2023-06-19T10:52:29;4.85;;;3.70;;
18867;SDS011;9563;49.240;9.088;2023-06-19T10:54:56;4.95;;;3.50;;
18867;SDS011;9563;49.240;9.088;2023-06-19T10:57:27;5.80;;;3.60;;
18867;SDS011;9563;49.240;9.088;2023-06-19T10:59:54;4.97;;;3.67;;
18867;SDS011;9563;49.240;9.088;2023-06-19T11:02:24;5.75;;;3.67;;
18867;SDS011;9563;49.240;9.088;2023-06-19T11:04:52;8.73;;;3.67;;
18867;SDS011;9563;49.240;9.088;2023-06-19T11:07:20;6.05;;;3.58;;
18867;SDS011;9563;49.240;9.088;2023-06-19T11:09:48;4.70;;;4.03;;
18867;SDS011;9563;49.240;9.088;2023-06-19T11:12:18;4.63;;;4.07;;
18867;SDS011;9563;49.240;9.088;2023-06-19T11:14:47;4.00;;;3.60;;
18867;SDS011;9563;49.240;9.088;2023-06-19T11:17:14;4.60;;;4.00;;
18867;SDS011;9563;49.240;9.088;2023-06-19T11:19:44;5.38;;;4.15;;
18867;SDS011;9563;49.240;9.088;2023-06-19T11:22:11;4.55;;;3.78;;
18867;SDS011;9563;49.240;9.088;2023-06-19T11:24:42;7.38;;;3.88;;
18867;SDS011;9563;49.240;9.088;2023-06-19T11:27:16;5.88;;;4.13;;
18867;SDS011;9563;49.240;9.088;2023-06-19T11:29:44;5.05;;;4.07;;
18867;SDS011;9563;49.240;9.088;2023-06-19T11:32:12;4.85;;;3.78;;
18867;SDS011;9563;49.240;9.088;2023-06-19T11:34:40;4.95;;;4.13;;
18867;SDS011;9563;49.240;9.088;2023-06-19T11:37:13;5.05;;;4.25;;
18867;SDS011;9563;49.240;9.088;2023-06-19T11:39:40;4.95;;;3.90;;
18867;SDS011;9563;49.240;9.088;2023-06-19T11:42:07;5.63;;;4.18;;
18867;SDS011;9563;49.240;9.088;2023-06-19T11:44:34;4.75;;;4.15;;
18867;SDS011;9563;49.240;9.088;2023-06-19T11:47:01;7.82;;;4.13;;
18867;SDS011;9563;49.240;9.088;2023-06-19T11:49:28;8.65;;;3.92;;
18867;SDS011;9563;49.240;9.088;2023-06-19T11:52:01;5.80;;;4.30;;
18867;SDS011;9563;49.240;9.088;2023-06-19T11:54:30;4.93;;;4.43;;
18867;SDS011;9563;49.240;9.088;2023-06-19T11:56:57;6.32;;;4.32;;
18867;SDS011;9563;49.240;9.088;2023-06-19T11:59:23;5.05;;;4.13;;
18867;SDS011;9563;49.240;9.088;2023-06-19T12:01:51;4.13;;;3.72;;
18867;SDS011;9563;49.240;9.088;2023-06-19T12:04:18;4.20;;;3.80;;
18867;SDS011;9563;49.240;9.088;2023-06-19T12:06:45;6.22;;;4.68;;
18867;SDS011;9563;49.240;9.088;2023-06-19T12:09:11;5.03;;;4.07;;
18867;SDS011;9563;49.240;9.088;2023-06-19T12:11:40;5.95;;;4.45;;
18867;SDS011;9563;49.240;9.088;2023-06-19T12:14:07;5.60;;;4.65;;
18867;SDS011;9563;49.240;9.088;2023-06-19T12:16:34;4.70;;;4.05;;
18867;SDS011;9563;49.240;9.088;2023-06-19T12:19:01;6.53;;;4.40;;
18867;SDS011;9563;49.240;9.088;2023-06-19T12:21:28;4.93;;;3.92;;
18867;SDS011;9563;49.240;9.088;2023-06-19T12:23:55;5.40;;;4.18;;
18867;SDS011;9563;49.240;9.088;2023-06-19T12:26:22;6.18;;;4.60;;
18867;SDS011;9563;49.240;9.088;2023-06-19T12:28:51;6.88;;;4.20;;
18867;SDS011;9563;49.240;9.088;2023-06-19T12:31:18;7.38;;;4.32;;
18867;SDS011;9563;49.240;9.088;2023-06-19T12:33:45;5.65;;;4.18;;
18867;SDS011;9563;49.240;9.088;2023-06-19T12:36:13;6.50;;;4.55;;
18867;SDS011;9563;49.240;9.088;2023-06-19T12:38:40;5.57;;;4.55;;
18867;SDS011;9563;49.240;9.088;2023-06-19T12:41:07;6.18;;;4.50;;
18867;SDS011;9563;49.240;9.088;2023-06-19T12:43:34;7.95;;;4.18;;
18867;SDS011;9563;49.240;9.088;2023-06-19T12:46:03;6.68;;;4.30;;
18867;SDS011;9563;49.240;9.088;2023-06-19T12:48:30;9.23;;;4.25;;
18867;SDS011;9563;49.240;9.088;2023-06-19T12:50:58;4.57;;;3.85;;
18867;SDS011;9563;49.240;9.088;2023-06-19T12:53:25;3.97;;;3.30;;
18867;SDS011;9563;49.240;9.088;2023-06-19T12:55:55;6.15;;;3.75;;
18867;SDS011;9563;49.240;9.088;2023-06-19T12:58:22;6.75;;;3.55;;
18867;SDS011;9563;49.240;9.088;2023-06-19T13:00:49;4.97;;;3.58;;
18867;SDS011;9563;49.240;9.088;2023-06-19T13:03:18;4.05;;;3.58;;
18867;SDS011;9563;49.240;9.088;2023-06-19T13:05:45;3.78;;;3.25;;
18867;SDS011;9563;49.240;9.088;2023-06-19T13:08:13;5.20;;;3.70;;
18867;SDS011;9563;49.240;9.088;2023-06-19T13:10:39;4.55;;;3.67;;
18867;SDS011;9563;49.240;9.088;2023-06-19T13:13:06;5.13;;;3.60;;
18867;SDS011;9563;49.240;9.088;2023-06-19T13:15:35;4.45;;;3.40;;
18867;SDS011;9563;49.240;9.088;2023-06-19T13:18:02;3.58;;;2.97;;
18867;SDS011;9563;49.240;9.088;2023-06-19T13:20:30;4.65;;;3.53;;
18867;SDS011;9563;49.240;9.088;2023-06-19T13:22:58;5.63;;;3.28;;
18867;SDS011;9563;49.240;9.088;2023-06-19T13:25:24;5.32;;;3.72;;
18867;SDS011;9563;49.240;9.088;2023-06-19T13:27:51;5.93;;;3.78;;
18867;SDS011;9563;49.240;9.088;2023-06-19T13:30:18;4.47;;;3.40;;
18867;SDS011;9563;49.240;9.088;2023-06-19T13:32:45;5.22;;;3.65;;
18867;SDS011;9563;49.240;9.088;2023-06-19T13:35:12;6.00;;;3.10;;
18867;SDS011;9563;49.240;9.088;2023-06-19T13:37:40;4.28;;;3.50;;
18867;SDS011;9563;49.240;9.088;2023-06-19T13:40:08;4.65;;;3.75;;
18867;SDS011;9563;49.240;9.088;2023-06-19T13:42:35;4.45;;;3.53;;
18867;SDS011;9563;49.240;9.088;2023-06-19T13:45:03;6.45;;;3.65;;
18867;SDS011;9563;49.240;9.088;2023-06-19T13:47:31;4.20;;;3.63;;
18867;SDS011;9563;49.240;9.088;2023-06-19T13:49:58;5.00;;;3.42;;
18867;SDS011;9563;49.240;9.088;2023-06-19T13:52:25;5.30;;;3.63;;
18867;SDS011;9563;49.240;9.088;2023-06-19T13:54:54;3.50;;;3.20;;
18867;SDS011;9563;49.240;9.088;2023-06-19T13:57:21;6.40;;;3.70;;
18867;SDS011;9563;49.240;9.088;2023-06-19T13:59:48;4.40;;;3.58;;
18867;SDS011;9563;49.240;9.088;2023-06-19T14:02:14;6.75;;;3.50;;
18867;SDS011;9563;49.240;9.088;2023-06-19T14:04:41;3.20;;;2.90;;
18867;SDS011;9563;49.240;9.088;2023-06-19T14:07:08;7.00;;;3.35;;
18867;SDS011;9563;49.240;9.088;2023-06-19T14:09:35;3.53;;;3.00;;
18867;SDS011;9563;49.240;9.088;2023-06-19T14:12:05;4.82;;;3.33;;
18867;SDS011;9563;49.240;9.088;2023-06-19T14:14:32;4.75;;;3.40;;
18867;SDS011;9563;49.240;9.088;2023-06-19T14:17:00;5.38;;;3.80;;
18867;SDS011;9563;49.240;9.088;2023-06-19T14:19:27;4.90;;;3.45;;
18867;SDS011;9563;49.240;9.088;2023-06-19T14:21:54;5.38;;;3.47;;
18867;SDS011;9563;49.240;9.088;2023-06-19T14:24:21;3.33;;;3.03;;
18867;SDS011;9563;49.240;9.088;2023-06-19T14:26:49;3.10;;;2.80;;
18867;SDS011;9563;49.240;9.088;2023-06-19T14:29:17;5.45;;;3.70;;
18867;SDS011;9563;49.240;9.088;2023-06-19T14:31:45;3.22;;;2.92;;
18867;SDS011;9563;49.240;9.088;2023-06-19T14:34:12;4.60;;;3.40;;
18867;SDS011;9563;49.240;9.088;2023-06-19T14:36:39;3.97;;;3.00;;
18867;SDS011;9563;49.240;9.088;2023-06-19T14:39:06;3.85;;;3.45;;
18867;SDS011;9563;49.240;9.088;2023-06-19T14:41:33;3.92;;;3.30;;
18867;SDS011;9563;49.240;9.088;2023-06-19T14:44:00;4.63;;;3.25;;
18867;SDS011;9563;49.240;9.088;2023-06-19T14:46:29;5.68;;;3.17;;
18867;SDS011;9563;49.240;9.088;2023-06-19T14:48:56;3.33;;;3.03;;
18867;SDS011;9563;49.240;9.088;2023-06-19T14:51:23;7.45;;;3.03;;
18867;SDS011;9563;49.240;9.088;2023-06-19T14:53:50;4.28;;;3.05;;
18867;SDS011;9563;49.240;9.088;2023-06-19T14:56:17;3.20;;;2.90;;
18867;SDS011;9563;49.240;9.088;2023-06-19T14:58:44;4.78;;;2.60;;
18867;SDS011;9563;49.240;9.088;2023-06-19T15:01:11;4.40;;;3.55;;
18867;SDS011;9563;49.240;9.088;2023-06-19T15:03:39;3.53;;;3.22;;
18867;SDS011;9563;49.240;9.088;2023-06-19T15:06:08;3.47;;;3.17;;
18867;SDS011;9563;49.240;9.088;2023-06-19T15:08:35;3.35;;;3.05;;
18867;SDS011;9563;49.240;9.088;2023-06-19T15:11:03;3.47;;;3.17;;
18867;SDS011;9563;49.240;9.088;2023-06-19T15:13:30;3.88;;;3.05;;
18867;SDS011;9563;49.240;9.088;2023-06-19T15:15:57;3.83;;;2.92;;
18867;SDS011;9563;49.240;9.088;2023-06-19T15:18:25;4.22;;;3.05;;
18867;SDS011;9563;49.240;9.088;2023-06-19T15:20:54;3.88;;;3.10;;
18867;SDS011;9563;49.240;9.088;2023-06-19T15:23:21;4.07;;;2.97;;
18867;SDS011;9563;49.240;9.088;2023-06-19T15:25:47;3.92;;;3.00;;
18867;SDS011;9563;49.240;9.088;2023-06-19T15:28:17;3.78;;;3.38;;
18867;SDS011;9563;49.240;9.088;2023-06-19T15:30:44;3.22;;;2.92;;
18867;SDS011;9563;49.240;9.088;2023-06-19T15:33:11;3.35;;;3.05;;
18867;SDS011;9563;49.240;9.088;2023-06-19T15:35:38;5.10;;;2.90;;
18867;SDS011;9563;49.240;9.088;2023-06-19T15:38:06;4.05;;;3.15;;
18867;SDS011;9563;49.240;9.088;2023-06-19T15:40:33;3.67;;;2.85;;
18867;SDS011;9563;49.240;9.088;2023-06-19T15:43:00;3.45;;;2.65;;
18867;SDS011;9563;49.240;9.088;2023-06-19T15:45:27;3.85;;;2.95;;
18867;SDS011;9563;49.240;9.088;2023-06-19T15:47:54;6.03;;;2.50;;
18867;SDS011;9563;49.240;9.088;2023-06-19T15:50:21;5.57;;;3.00;;
18867;SDS011;9563;49.240;9.088;2023-06-19T15:52:47;3.13;;;2.83;;
18867;SDS011;9563;49.240;9.088;2023-06-19T15:55:16;3.47;;;2.95;;
18867;SDS011;9563;49.240;9.088;2023-06-19T15:57:43;4.68;;;2.95;;
18867;SDS011;9563;49.240;9.088;2023-06-19T16:00:10;4.18;;;2.90;;
18867;SDS011;9563;49.240;9.088;2023-06-19T16:02:39;4.47;;;3.00;;
18867;SDS011;9563;49.240;9.088;2023-06-19T16:05:08;8.57;;;3.75;;
18867;SDS011;9563;49.240;9.088;2023-06-19T16:07:35;3.38;;;2.85;;
18867;SDS011;9563;49.240;9.088;2023-06-19T16:10:02;4.65;;;3.25;;
18867;SDS011;9563;49.240;9.088;2023-06-19T16:12:30;5.53;;;2.97;;
18867;SDS011;9563;49.240;9.088;2023-06-19T16:14:57;3.63;;;3.08;;
18867;SDS011;9563;49.240;9.088;2023-06-19T16:17:24;4.50;;;3.35;;
18867;SDS011;9563;49.240;9.088;2023-06-19T16:19:51;3.15;;;2.85;;
18867;SDS011;9563;49.240;9.088;2023-06-19T16:22:18;3.53;;;3.22;;
18867;SDS011;9563;49.240;9.088;2023-06-19T16:24:45;3.38;;;3.00;;
18867;SDS011;9563;49.240;9.088;2023-06-19T16:27:12;5.15;;;3.40;;
18867;SDS011;9563;49.240;9.088;2023-06-19T16:29:40;3.47;;;3.05;;
18867;SDS011;9563;49.240;9.088;2023-06-19T16:32:07;4.15;;;3.75;;
18867;SDS011;9563;49.240;9.088;2023-06-19T16:34:34;4.45;;;3.50;;
18867;SDS011;9563;49.240;9.088;2023-06-19T16:37:01;4.50;;;3.47;;
18867;SDS011;9563;49.240;9.088;2023-06-19T16:39:28;5.03;;;3.30;;
18867;SDS011;9563;49.240;9.088;2023-06-19T16:41:55;3.58;;;2.85;;
18867;SDS011;9563;49.240;9.088;2023-06-19T16:44:21;4.57;;;3.63;;
18867;SDS011;9563;49.240;9.088;2023-06-19T16:46:50;3.65;;;3.20;;
18867;SDS011;9563;49.240;9.088;2023-06-19T16:49:17;5.63;;;3.40;;
18867;SDS011;9563;49.240;9.088;2023-06-19T16:51:46;3.90;;;3.47;;
18867;SDS011;9563;49.240;9.088;2023-06-19T16:54:13;5.57;;;3.40;;
18867;SDS011;9563;49.240;9.088;2023-06-19T16:56:40;4.97;;;3.13;;
18867;SDS011;9563;49.240;9.088;2023-06-19T16:59:08;4.10;;;3.70;;
18867;SDS011;9563;49.240;9.088;2023-06-19T17:01:35;6.97;;;3.63;;
18867;SDS011;9563;49.240;9.088;2023-06-19T17:04:03;5.03;;;3.35;;
18867;SDS011;9563;49.240;9.088;2023-06-19T17:06:30;5.95;;;3.80;;
18867;SDS011;9563;49.240;9.088;2023-06-19T17:08:57;4.40;;;3.50;;
18867;SDS011;9563;49.240;9.088;2023-06-19T17:11:24;3.92;;;3.40;;
18867;SDS011;9563;49.240;9.088;2023-06-19T17:13:52;4.50;;;3.92;;
18867;SDS011;9563;49.240;9.088;2023-06-19T17:16:19;5.65;;;4.07;;
18867;SDS011;9563;49.240;9.088;2023-06-19T17:18:46;3.92;;;3.53;;
18867;SDS011;9563;49.240;9.088;2023-06-19T17:21:14;4.20;;;3.45;;
18867;SDS011;9563;49.240;9.088;2023-06-19T17:23:41;4.45;;;3.85;;
18867;SDS011;9563;49.240;9.088;2023-06-19T17:26:08;4.32;;;3.92;;
18867;SDS011;9563;49.240;9.088;2023-06-19T17:28:35;4.60;;;4.20;;
18867;SDS011;9563;49.240;9.088;2023-06-19T17:31:02;7.07;;;4.32;;
18867;SDS011;9563;49.240;9.088;2023-06-19T17:33:29;4.95;;;4.07;;
18867;SDS011;9563;49.240;9.088;2023-06-19T17:35:55;5.50;;;4.47;;
18867;SDS011;9563;49.240;9.088;2023-06-19T17:38:25;4.80;;;3.60;;
18867;SDS011;9563;49.240;9.088;2023-06-19T17:40:52;4.50;;;4.00;;
18867;SDS011;9563;49.240;9.088;2023-06-19T17:43:19;8.07;;;4.20;;
18867;SDS011;9563;49.240;9.088;2023-06-19T17:45:46;6.72;;;3.75;;
18867;SDS011;9563;49.240;9.088;2023-06-19T17:48:12;4.28;;;3.88;;
18867;SDS011;9563;49.240;9.088;2023-06-19T17:50:39;4.78;;;3.95;;
18867;SDS011;9563;49.240;9.088;2023-06-19T17:53:06;8.27;;;3.55;;
18867;SDS011;9563;49.240;9.088;2023-06-19T17:55:35;3.78;;;3.30;;
18867;SDS011;9563;49.240;9.088;2023-06-19T17:58:02;4.05;;;3.65;;
18867;SDS011;9563;49.240;9.088;2023-06-19T18:00:29;4.00;;;3.60;;
18867;SDS011;9563;49.240;9.088;2023-06-19T18:02:56;3.83;;;3.28;;
18867;SDS011;9563;49.240;9.088;2023-06-19T18:05:22;4.38;;;3.88;;
18867;SDS011;9563;49.240;9.088;2023-06-19T18:07:49;4.05;;;3.65;;
18867;SDS011;9563;49.240;9.088;2023-06-19T18:10:16;4.35;;;3.45;;
18867;SDS011;9563;49.240;9.088;2023-06-19T18:12:45;5.00;;;3.92;;
18867;SDS011;9563;49.240;9.088;2023-06-19T18:15:12;4.88;;;3.90;;
18867;SDS011;9563;49.240;9.088;2023-06-19T18:17:39;7.03;;;3.83;;
18867;SDS011;9563;49.240;9.088;2023-06-19T18:20:06;6.43;;;3.63;;
18867;SDS011;9563;49.240;9.088;2023-06-19T18:22:33;4.05;;;3.42;;
18867;SDS011;9563;49.240;9.088;2023-06-19T18:25:01;4.70;;;3.88;;
18867;SDS011;9563;49.240;9.088;2023-06-19T18:27:28;3.85;;;3.45;;
18867;SDS011;9563;49.240;9.088;2023-06-19T18:29:56;6.50;;;3.65;;
18867;SDS011;9563;49.240;9.088;2023-06-19T18:32:22;4.65;;;3.85;;
18867;SDS011;9563;49.240;9.088;2023-06-19T18:34:49;4.40;;;3.60;;
18867;SDS011;9563;49.240;9.088;2023-06-19T18:37:16;3.92;;;3.33;;
18867;SDS011;9563;49.240;9.088;2023-06-19T18:39:43;4.00;;;3.60;;
18867;SDS011;9563;49.240;9.088;2023-06-19T18:42:10;3.60;;;3.25;;
18867;SDS011;9563;49.240;9.088;2023-06-19T18:44:37;5.22;;;3.60;;
18867;SDS011;9563;49.240;9.088;2023-06-19T18:47:06;5.13;;;4.05;;
18867;SDS011;9563;49.240;9.088;2023-06-19T18:49:33;5.40;;;3.97;;
18867;SDS011;9563;49.240;9.088;2023-06-19T18:52:00;3.35;;;3.05;;
18867;SDS011;9563;49.240;9.088;2023-06-19T18:54:27;4.25;;;3.80;;
18867;SDS011;9563;49.240;9.088;2023-06-19T18:56:54;4.40;;;3.47;;
18867;SDS011;9563;49.240;9.088;2023-06-19T18:59:21;4.78;;;4.03;;
18867;SDS011;9563;49.240;9.088;2023-06-19T19:01:48;3.92;;;3.30;;